createdAt,value
2018-02-11T00:01:33.000Z,99514
2018-02-11T00:03:33.000Z,99507
2018-02-11T00:05:33.000Z,99506
2018-02-11T00:06:33.000Z,99503
2018-02-11T00:07:33.000Z,99506
2018-02-11T00:08:33.000Z,99499
2018-02-11T00:10:18.000Z,99491
2018-02-11T00:11:33.000Z,99481
2018-02-11T00:13:33.000Z,99479
2018-02-11T00:14:33.000Z,99480
2018-02-11T00:16:33.000Z,99480
2018-02-11T00:17:33.000Z,99480
2018-02-11T00:19:33.000Z,99470
2018-02-11T00:21:33.000Z,99468
2018-02-11T00:22:33.000Z,99476
2018-02-11T00:24:33.000Z,99469
2018-02-11T00:25:33.000Z,99466
2018-02-11T00:27:33.000Z,99458
2018-02-11T00:29:33.000Z,99465
2018-02-11T00:31:33.000Z,99455
2018-02-11T00:33:33.000Z,99450
2018-02-11T00:35:33.000Z,99445
2018-02-11T00:37:33.000Z,99445
2018-02-11T00:39:18.000Z,99436
2018-02-11T00:40:33.000Z,99446
2018-02-11T00:41:33.000Z,99438
2018-02-11T00:42:33.000Z,99437
2018-02-11T00:44:33.000Z,99432
2018-02-11T00:46:33.000Z,99420
2018-02-11T00:47:33.000Z,99418
2018-02-11T00:49:33.000Z,99425
2018-02-11T00:50:33.000Z,99421
2018-02-11T00:52:33.000Z,99418
2018-02-11T00:54:18.000Z,99414
2018-02-11T00:55:18.000Z,99414
2018-02-11T00:56:33.000Z,99409
2018-02-11T00:58:18.000Z,99408
2018-02-11T00:59:33.000Z,99400
2018-02-11T01:00:33.000Z,99401
2018-02-11T01:01:33.000Z,99401
2018-02-11T01:03:33.000Z,99393
2018-02-11T01:05:33.000Z,99397
2018-02-11T01:06:33.000Z,99393
2018-02-11T01:08:18.000Z,99387
2018-02-11T01:09:33.000Z,99391
2018-02-11T01:11:33.000Z,99379
2018-02-11T01:13:18.000Z,99377
2018-02-11T01:14:33.000Z,99376
2018-02-11T01:15:33.000Z,99376
2018-02-11T01:17:18.000Z,99374
2018-02-11T01:18:33.000Z,99380
2018-02-11T01:19:33.000Z,99368
2018-02-11T01:21:33.000Z,99357
2018-02-11T01:23:18.000Z,99353
2018-02-11T01:24:33.000Z,99355
2018-02-11T01:25:33.000Z,99347
2018-02-11T01:26:33.000Z,99355
2018-02-11T01:28:18.000Z,99350
2018-02-11T01:29:33.000Z,99334
2018-02-11T01:31:33.000Z,99330
2018-02-11T01:33:33.000Z,99326
2018-02-11T01:34:33.000Z,99327
2018-02-11T01:35:33.000Z,99330
2018-02-11T01:37:18.000Z,99319
2018-02-11T01:38:33.000Z,99316
2018-02-11T01:39:33.000Z,99316
2018-02-11T01:40:33.000Z,99320
2018-02-11T01:42:18.000Z,99310
2018-02-11T01:43:33.000Z,99315
2018-02-11T01:45:18.000Z,99299
2018-02-11T01:46:33.000Z,99298
2018-02-11T01:47:33.000Z,99298
2018-02-11T01:49:33.000Z,99289
2018-02-11T01:50:33.000Z,99285
2018-02-11T01:52:33.000Z,99289
2018-02-11T01:53:33.000Z,99287
2018-02-11T01:54:33.000Z,99284
2018-02-11T01:56:33.000Z,99281
2018-02-11T01:57:33.000Z,99271
2018-02-11T01:58:33.000Z,99266
2018-02-11T02:00:33.000Z,99261
2018-02-11T02:02:33.000Z,99259
2018-02-11T02:04:33.000Z,99238
2018-02-11T02:06:33.000Z,99234
2018-02-11T02:07:33.000Z,99237
2018-02-11T02:09:33.000Z,99233
2018-02-11T02:10:33.000Z,99222
2018-02-11T02:11:33.000Z,99219
2018-02-11T02:12:33.000Z,99221
2018-02-11T02:14:18.000Z,99219
2018-02-11T02:15:33.000Z,99213
2018-02-11T02:16:33.000Z,99208
2018-02-11T02:18:18.000Z,99194
2018-02-11T02:19:33.000Z,99184
2018-02-11T02:20:33.000Z,99187
2018-02-11T02:22:18.000Z,99187
2018-02-11T02:23:33.000Z,99175
2018-02-11T02:24:33.000Z,99181
2018-02-11T02:26:33.000Z,99179
2018-02-11T02:28:18.000Z,99169
2018-02-11T02:29:33.000Z,99168
2018-02-11T02:30:33.000Z,99164
2018-02-11T02:32:33.000Z,99156
2018-02-11T02:34:33.000Z,99147
2018-02-11T02:35:33.000Z,99146
2018-02-11T02:37:33.000Z,99138
2018-02-11T02:39:33.000Z,99138
2018-02-11T02:41:18.000Z,99126
2018-02-11T02:42:33.000Z,99134
2018-02-11T02:44:33.000Z,99118
2018-02-11T02:46:33.000Z,99118
2018-02-11T02:48:33.000Z,99102
2018-02-11T02:50:18.000Z,99093
2018-02-11T02:51:18.000Z,99091
2018-02-11T02:52:33.000Z,99082
2018-02-11T02:53:33.000Z,99084
2018-02-11T02:55:33.000Z,99082
2018-02-11T02:57:33.000Z,99064
2018-02-11T02:59:33.000Z,99049
2018-02-11T03:01:33.000Z,99052
2018-02-11T03:03:33.000Z,99037
2018-02-11T03:04:33.000Z,99037
2018-02-11T03:06:18.000Z,99030
2018-02-11T03:07:33.000Z,99030
2018-02-11T03:09:33.000Z,99018
2018-02-11T03:11:33.000Z,99015
2018-02-11T03:12:33.000Z,99006
2018-02-11T03:14:33.000Z,98991
2018-02-11T03:15:33.000Z,98984
2018-02-11T03:17:33.000Z,98985
2018-02-11T03:19:33.000Z,98980
2018-02-11T03:20:33.000Z,98969
2018-02-11T03:22:33.000Z,98973
2018-02-11T03:23:33.000Z,98966
2018-02-11T03:25:33.000Z,98966
2018-02-11T03:27:33.000Z,98958
2018-02-11T03:29:33.000Z,98941
2018-02-11T03:31:18.000Z,98945
2018-02-11T03:32:33.000Z,98936
2018-02-11T03:33:33.000Z,98929
2018-02-11T03:35:33.000Z,98929
2018-02-11T03:36:33.000Z,98923
2018-02-11T03:37:33.000Z,98929
2018-02-11T03:39:33.000Z,98916
2018-02-11T03:41:33.000Z,98910
2018-02-11T03:43:33.000Z,98897
2018-02-11T03:45:18.000Z,98895
2018-02-11T03:46:33.000Z,98884
2018-02-11T03:47:33.000Z,98886
2018-02-11T03:48:33.000Z,98888
2018-02-11T03:50:03.000Z,98878
2018-02-11T03:51:33.000Z,98879
2018-02-11T03:53:33.000Z,98876
2018-02-11T03:55:33.000Z,98871
2018-02-11T03:57:33.000Z,98857
2018-02-11T03:58:33.000Z,98846
2018-02-11T03:59:33.000Z,98850
2018-02-11T04:01:33.000Z,98858
2018-02-11T04:03:34.000Z,98861
2018-02-11T04:05:34.000Z,98835
2018-02-11T04:06:34.000Z,98837
2018-02-11T04:08:34.000Z,98825
2018-02-11T04:10:34.000Z,98835
2018-02-11T04:12:34.000Z,98818
2018-02-11T04:14:34.000Z,98816
2018-02-11T04:16:18.000Z,98825
2018-02-11T04:17:34.000Z,98818
2018-02-11T04:19:34.000Z,98812
2018-02-11T04:20:34.000Z,98814
2018-02-11T04:22:18.000Z,98812
2018-02-11T04:23:34.000Z,98816
2018-02-11T04:25:34.000Z,98826
2018-02-11T04:26:34.000Z,98820
2018-02-11T04:27:34.000Z,98815
2018-02-11T04:29:34.000Z,98808
2018-02-11T04:30:34.000Z,98807
2018-02-11T04:32:34.000Z,98795
2018-02-11T04:34:34.000Z,98800
2018-02-11T04:35:34.000Z,98802
2018-02-11T04:37:34.000Z,98788
2018-02-11T04:39:34.000Z,98785
2018-02-11T04:41:34.000Z,98783
2018-02-11T04:43:34.000Z,98788
2018-02-11T04:44:34.000Z,98774
2018-02-11T04:46:34.000Z,98783
2018-02-11T04:48:34.000Z,98790
2018-02-11T04:49:34.000Z,98784
2018-02-11T04:51:18.000Z,98782
2018-02-11T04:52:34.000Z,98782
2018-02-11T04:54:34.000Z,98784
2018-02-11T04:56:18.000Z,98786
2018-02-11T04:57:34.000Z,98788
2018-02-11T04:58:34.000Z,98777
2018-02-11T05:00:34.000Z,98753
2018-02-11T05:02:34.000Z,98756
2018-02-11T05:04:34.000Z,98729
2018-02-11T05:06:33.000Z,98707
2018-02-11T05:07:33.000Z,98724
2018-02-11T05:09:33.000Z,98716
2018-02-11T05:11:33.000Z,98712
2018-02-11T05:13:18.000Z,98710
2018-02-11T05:14:33.000Z,98708
2018-02-11T05:16:33.000Z,98707
2018-02-11T05:18:33.000Z,98711
2018-02-11T05:19:33.000Z,98709
2018-02-11T05:21:33.000Z,98712
2018-02-11T05:23:33.000Z,98709
2018-02-11T05:24:33.000Z,98710
2018-02-11T05:25:33.000Z,98714
2018-02-11T05:26:33.000Z,98701
2018-02-11T05:28:33.000Z,98707
2018-02-11T05:29:33.000Z,98710
2018-02-11T05:30:33.000Z,98696
2018-02-11T05:31:33.000Z,98693
2018-02-11T05:33:33.000Z,98690
2018-02-11T05:35:33.000Z,98685
2018-02-11T05:36:33.000Z,98677
2018-02-11T05:38:33.000Z,98682
2018-02-11T05:40:18.000Z,98681
2018-02-11T05:41:33.000Z,98667
2018-02-11T05:42:33.000Z,98665
2018-02-11T05:44:33.000Z,98664
2018-02-11T05:46:33.000Z,98654
2018-02-11T05:48:33.000Z,98662
2018-02-11T05:49:33.000Z,98634
2018-02-11T05:51:33.000Z,98659
2018-02-11T05:53:33.000Z,98662
2018-02-11T05:55:18.000Z,98657
2018-02-11T05:56:33.000Z,98661
2018-02-11T05:58:33.000Z,98675
2018-02-11T05:59:33.000Z,98662
2018-02-11T06:01:33.000Z,98648
2018-02-11T06:03:33.000Z,98653
2018-02-11T06:05:33.000Z,98648
2018-02-11T06:07:33.000Z,98642
2018-02-11T06:09:33.000Z,98634
2018-02-11T06:11:18.000Z,98639
2018-02-11T06:12:33.000Z,98634
2018-02-11T06:14:33.000Z,98626
2018-02-11T06:16:33.000Z,98635
2018-02-11T06:18:33.000Z,98637
2018-02-11T06:20:33.000Z,98631
2018-02-11T06:22:33.000Z,98634
2018-02-11T06:23:33.000Z,98636
2018-02-11T06:25:33.000Z,98636
2018-02-11T06:27:33.000Z,98633
2018-02-11T06:29:33.000Z,98637
2018-02-11T06:31:18.000Z,98639
2018-02-11T06:32:33.000Z,98628
2018-02-11T06:34:18.000Z,98620
2018-02-11T06:35:33.000Z,98617
2018-02-11T06:36:33.000Z,98625
2018-02-11T06:38:33.000Z,98621
2018-02-11T06:39:33.000Z,98612
2018-02-11T06:41:18.000Z,98618
2018-02-11T06:42:33.000Z,98627
2018-02-11T06:44:33.000Z,98620
2018-02-11T06:46:33.000Z,98611
2018-02-11T06:47:33.000Z,98612
2018-02-11T06:49:33.000Z,98616
2018-02-11T06:51:18.000Z,98610
2018-02-11T06:52:33.000Z,98613
2018-02-11T06:54:33.000Z,98626
2018-02-11T06:56:33.000Z,98617
2018-02-11T06:58:33.000Z,98606
2018-02-11T07:00:33.000Z,98616
2018-02-11T07:01:33.000Z,98621
2018-02-11T07:03:33.000Z,98607
2018-02-11T07:05:33.000Z,98613
2018-02-11T07:06:33.000Z,98596
2018-02-11T07:08:33.000Z,98610
2018-02-11T07:10:33.000Z,98627
2018-02-11T07:11:33.000Z,98636
2018-02-11T07:12:33.000Z,98639
2018-02-11T07:14:18.000Z,98653
2018-02-11T07:15:33.000Z,98631
2018-02-11T07:17:33.000Z,98630
2018-02-11T07:18:33.000Z,98632
2018-02-11T07:20:18.000Z,98617
2018-02-11T07:21:33.000Z,98608
2018-02-11T07:22:33.000Z,98621
2018-02-11T07:24:33.000Z,98619
2018-02-11T07:25:33.000Z,98631
2018-02-11T07:26:33.000Z,98642
2018-02-11T07:28:33.000Z,98644
2018-02-11T07:30:18.000Z,98649
2018-02-11T07:31:33.000Z,98632
2018-02-11T07:32:33.000Z,98638
2018-02-11T07:34:33.000Z,98640
2018-02-11T07:36:33.000Z,98655
2018-02-11T07:38:33.000Z,98648
2018-02-11T07:39:33.000Z,98647
2018-02-11T07:41:33.000Z,98647
2018-02-11T07:43:18.000Z,98653
2018-02-11T07:44:33.000Z,98657
2018-02-11T07:46:33.000Z,98657
2018-02-11T07:47:33.000Z,98656
2018-02-11T07:49:33.000Z,98659
2018-02-11T07:51:33.000Z,98659
2018-02-11T07:53:18.000Z,98659
2018-02-11T07:54:33.000Z,98656
2018-02-11T07:55:33.000Z,98649
2018-02-11T07:56:33.000Z,98656
2018-02-11T07:58:33.000Z,98648
2018-02-11T08:00:33.000Z,98653
2018-02-11T08:02:18.000Z,98662
2018-02-11T08:03:33.000Z,98665
2018-02-11T08:04:33.000Z,98681
2018-02-11T08:06:33.000Z,98686
2018-02-11T08:08:33.000Z,98675
2018-02-11T08:09:33.000Z,98663
2018-02-11T08:11:33.000Z,98666
2018-02-11T08:12:33.000Z,98675
2018-02-11T08:14:33.000Z,98671
2018-02-11T08:15:33.000Z,98677
2018-02-11T08:17:18.000Z,98678
2018-02-11T08:18:34.000Z,98676
2018-02-11T08:19:34.000Z,98682
2018-02-11T08:20:34.000Z,98679
2018-02-11T08:21:34.000Z,98676
2018-02-11T08:23:34.000Z,98672
2018-02-11T08:24:34.000Z,98669
2018-02-11T08:26:34.000Z,98683
2018-02-11T08:28:34.000Z,98682
2018-02-11T08:29:34.000Z,98689
2018-02-11T08:30:34.000Z,98685
2018-02-11T08:31:34.000Z,98680
2018-02-11T08:33:34.000Z,98677
2018-02-11T08:35:34.000Z,98689
2018-02-11T08:37:34.000Z,98686
2018-02-11T08:38:34.000Z,98688
2018-02-11T08:40:34.000Z,98680
2018-02-11T08:42:34.000Z,98682
2018-02-11T08:44:18.000Z,98681
2018-02-11T08:45:34.000Z,98682
2018-02-11T08:46:34.000Z,98689
2018-02-11T08:48:34.000Z,98686
2018-02-11T08:50:18.000Z,98684
2018-02-11T08:51:34.000Z,98689
2018-02-11T08:52:34.000Z,98697
2018-02-11T08:53:34.000Z,98702
2018-02-11T08:54:34.000Z,98706
2018-02-11T08:56:34.000Z,98706
2018-02-11T08:58:34.000Z,98691
2018-02-11T09:00:34.000Z,98702
2018-02-11T09:02:34.000Z,98698
2018-02-11T09:04:34.000Z,98707
2018-02-11T09:05:34.000Z,98697
2018-02-11T09:07:34.000Z,98704
2018-02-11T09:09:18.000Z,98705
2018-02-11T09:10:34.000Z,98707
2018-02-11T09:11:34.000Z,98705
2018-02-11T09:13:34.000Z,98711
2018-02-11T09:15:18.000Z,98718
2018-02-11T09:16:34.000Z,98715
2018-02-11T09:18:34.000Z,98706
2018-02-11T09:20:33.000Z,98701
2018-02-11T09:22:33.000Z,98701
2018-02-11T09:24:33.000Z,98712
2018-02-11T09:26:33.000Z,98709
2018-02-11T09:27:33.000Z,98710
2018-02-11T09:29:33.000Z,98706
2018-02-11T09:30:33.000Z,98706
2018-02-11T09:32:33.000Z,98703
2018-02-11T09:34:33.000Z,98701
2018-02-11T09:36:33.000Z,98698
2018-02-11T09:38:33.000Z,98699
2018-02-11T09:39:33.000Z,98694
2018-02-11T09:41:02.000Z,98686
2018-02-11T09:42:33.000Z,98694
2018-02-11T09:44:33.000Z,98688
2018-02-11T09:46:33.000Z,98695
2018-02-11T09:48:18.000Z,98697
2018-02-11T09:49:33.000Z,98696
2018-02-11T09:51:33.000Z,98705
2018-02-11T09:53:33.000Z,98703
2018-02-11T09:55:33.000Z,98707
2018-02-11T09:57:33.000Z,98704
2018-02-11T09:59:33.000Z,98705
2018-02-11T10:00:33.000Z,98701
2018-02-11T10:02:33.000Z,98711
2018-02-11T10:04:18.000Z,98707
2018-02-11T10:05:33.000Z,98699
2018-02-11T10:06:33.000Z,98711
2018-02-11T10:08:33.000Z,98713
2018-02-11T10:10:33.000Z,98710
2018-02-11T10:11:33.000Z,98718
2018-02-11T10:12:33.000Z,98720
2018-02-11T10:14:33.000Z,98721
2018-02-11T10:15:33.000Z,98717
2018-02-11T10:17:33.000Z,98722
2018-02-11T10:19:33.000Z,98725
2018-02-11T10:21:33.000Z,98717
2018-02-11T10:23:34.000Z,98728
2018-02-11T10:24:34.000Z,98722
2018-02-11T10:25:34.000Z,98722
2018-02-11T10:27:34.000Z,98723
2018-02-11T10:28:34.000Z,98720
2018-02-11T10:29:34.000Z,98719
2018-02-11T10:30:34.000Z,98721
2018-02-11T10:31:34.000Z,98724
2018-02-11T10:33:34.000Z,98729
2018-02-11T10:35:34.000Z,98730
2018-02-11T10:37:34.000Z,98722
2018-02-11T10:39:18.000Z,98716
2018-02-11T10:40:34.000Z,98722
2018-02-11T10:42:34.000Z,98722
2018-02-11T10:44:34.000Z,98721
2018-02-11T10:46:34.000Z,98719
2018-02-11T10:48:34.000Z,98721
2018-02-11T10:49:34.000Z,98724
2018-02-11T10:51:34.000Z,98708
2018-02-11T10:53:34.000Z,98718
2018-02-11T10:55:34.000Z,98711
2018-02-11T10:57:03.000Z,98718
2018-02-11T10:58:34.000Z,98724
2018-02-11T10:59:34.000Z,98728
2018-02-11T11:01:34.000Z,98725
2018-02-11T11:02:34.000Z,98728
2018-02-11T11:04:34.000Z,98728
2018-02-11T11:06:34.000Z,98722
2018-02-11T11:08:18.000Z,98719
2018-02-11T11:09:34.000Z,98721
2018-02-11T11:10:34.000Z,98722
2018-02-11T11:12:18.000Z,98725
2018-02-11T11:13:34.000Z,98726
2018-02-11T11:14:34.000Z,98727
2018-02-11T11:16:34.000Z,98728
2018-02-11T11:18:34.000Z,98729
2018-02-11T11:19:34.000Z,98734
2018-02-11T11:21:34.000Z,98731
2018-02-11T11:23:34.000Z,98728
2018-02-11T11:24:34.000Z,98728
2018-02-11T11:26:34.000Z,98731
2018-02-11T11:28:03.000Z,98732
2018-02-11T11:29:33.000Z,98729
2018-02-11T11:31:33.000Z,98719
2018-02-11T11:33:33.000Z,98719
2018-02-11T11:34:34.000Z,98717
2018-02-11T11:36:33.000Z,98714
2018-02-11T11:38:33.000Z,98713
2018-02-11T11:40:34.000Z,98724
2018-02-11T11:42:18.000Z,98708
2018-02-11T11:43:34.000Z,98706
2018-02-11T11:45:33.000Z,98707
2018-02-11T11:47:03.000Z,98697
2018-02-11T11:48:33.000Z,98706
2018-02-11T11:50:33.000Z,98705
2018-02-11T11:52:18.000Z,98705
2018-02-11T11:53:33.000Z,98704
2018-02-11T11:54:34.000Z,98708
2018-02-11T11:56:34.000Z,98710
2018-02-11T11:58:18.000Z,98704
2018-02-11T11:59:34.000Z,98710
2018-02-11T12:01:33.000Z,98705
2018-02-11T12:02:33.000Z,98712
2018-02-11T12:04:33.000Z,98717
2018-02-11T12:06:34.000Z,98728
2018-02-11T12:08:33.000Z,98721
2018-02-11T12:09:34.000Z,98729
2018-02-11T12:11:34.000Z,98731
2018-02-11T12:12:34.000Z,98740
2018-02-11T12:14:33.000Z,98751
2018-02-11T12:15:34.000Z,98757
2018-02-11T12:17:33.000Z,98759
2018-02-11T12:19:34.000Z,98754
2018-02-11T12:21:18.000Z,98747
2018-02-11T12:22:34.000Z,98747
2018-02-11T12:24:18.000Z,98748
2018-02-11T12:25:33.000Z,98751
2018-02-11T12:27:33.000Z,98741
2018-02-11T12:29:33.000Z,98744
2018-02-11T12:30:33.000Z,98749
2018-02-11T12:31:33.000Z,98749
2018-02-11T12:33:33.000Z,98752
2018-02-11T12:34:33.000Z,98742
2018-02-11T12:35:33.000Z,98750
2018-02-11T12:37:33.000Z,98746
2018-02-11T12:39:33.000Z,98753
2018-02-11T12:41:33.000Z,98762
2018-02-11T12:42:33.000Z,98768
2018-02-11T12:44:33.000Z,98774
2018-02-11T12:46:18.000Z,98775
2018-02-11T12:47:33.000Z,98770
2018-02-11T12:49:33.000Z,98759
2018-02-11T12:51:33.000Z,98755
2018-02-11T12:52:33.000Z,98755
2018-02-11T12:53:33.000Z,98756
2018-02-11T12:55:33.000Z,98756
2018-02-11T12:56:33.000Z,98747
2018-02-11T12:58:33.000Z,98759
2018-02-11T13:00:33.000Z,98762
2018-02-11T13:01:33.000Z,98763
2018-02-11T13:03:33.000Z,98759
2018-02-11T13:05:33.000Z,98756
2018-02-11T13:07:33.000Z,98762
2018-02-11T13:09:33.000Z,98768
2018-02-11T13:11:33.000Z,98768
2018-02-11T13:12:33.000Z,98766
2018-02-11T13:14:33.000Z,98774
2018-02-11T13:16:33.000Z,98774
2018-02-11T13:18:33.000Z,98782
2018-02-11T13:20:18.000Z,98779
2018-02-11T13:21:33.000Z,98785
2018-02-11T13:22:33.000Z,98784
2018-02-11T13:24:33.000Z,98794
2018-02-11T13:26:33.000Z,98788
2018-02-11T13:28:33.000Z,98784
2018-02-11T13:30:33.000Z,98789
2018-02-11T13:32:18.000Z,98788
2018-02-11T13:33:33.000Z,98786
2018-02-11T13:35:33.000Z,98780
2018-02-11T13:36:33.000Z,98780
2018-02-11T13:37:33.000Z,98782
2018-02-11T13:38:33.000Z,98777
2018-02-11T13:40:18.000Z,98779
2018-02-11T13:41:33.000Z,98780
2018-02-11T13:42:33.000Z,98776
2018-02-11T13:44:03.000Z,98780
2018-02-11T13:45:33.000Z,98783
2018-02-11T13:46:33.000Z,98782
2018-02-11T13:48:33.000Z,98788
2018-02-11T13:50:33.000Z,98780
2018-02-11T13:52:18.000Z,98785
2018-02-11T13:53:33.000Z,98782
2018-02-11T13:55:33.000Z,98784
2018-02-11T13:57:18.000Z,98783
2018-02-11T13:58:33.000Z,98781
2018-02-11T14:00:33.000Z,98783
2018-02-11T14:01:33.000Z,98779
2018-02-11T14:02:33.000Z,98778
2018-02-11T14:04:33.000Z,98782
2018-02-11T14:05:33.000Z,98782
2018-02-11T14:06:33.000Z,98788
2018-02-11T14:08:33.000Z,98780
2018-02-11T14:10:33.000Z,98797
2018-02-11T14:12:03.000Z,98793
2018-02-11T14:13:33.000Z,98791
2018-02-11T14:15:33.000Z,98799
2018-02-11T14:17:33.000Z,98803
2018-02-11T14:19:33.000Z,98803
2018-02-11T14:21:33.000Z,98806
2018-02-11T14:23:33.000Z,98810
2018-02-11T14:25:33.000Z,98816
2018-02-11T14:27:33.000Z,98819
2018-02-11T14:29:18.000Z,98817
2018-02-11T14:30:33.000Z,98819
2018-02-11T14:32:33.000Z,98823
2018-02-11T14:34:33.000Z,98820
2018-02-11T14:35:33.000Z,98815
2018-02-11T14:37:33.000Z,98825
2018-02-11T14:38:33.000Z,98825
2018-02-11T14:40:33.000Z,98833
2018-02-11T14:41:33.000Z,98831
2018-02-11T14:43:18.000Z,98832
2018-02-11T14:44:33.000Z,98836
2018-02-11T14:46:33.000Z,98835
2018-02-11T14:48:18.000Z,98841
2018-02-11T14:49:33.000Z,98845
2018-02-11T14:50:33.000Z,98839
2018-02-11T14:52:33.000Z,98851
2018-02-11T14:53:33.000Z,98861
2018-02-11T14:55:33.000Z,98845
2018-02-11T14:57:18.000Z,98845
2018-02-11T14:58:33.000Z,98851
2018-02-11T14:59:33.000Z,98854
2018-02-11T15:00:33.000Z,98844
2018-02-11T15:02:18.000Z,98843
2018-02-11T15:03:33.000Z,98844
2018-02-11T15:04:33.000Z,98842
2018-02-11T15:06:33.000Z,98836
2018-02-11T15:08:33.000Z,98850
2018-02-11T15:10:33.000Z,98845
2018-02-11T15:12:33.000Z,98843
2018-02-11T15:14:33.000Z,98853
2018-02-11T15:15:33.000Z,98859
2018-02-11T15:17:33.000Z,98860
2018-02-11T15:19:33.000Z,98863
2018-02-11T15:20:33.000Z,98860
2018-02-11T15:22:18.000Z,98861
2018-02-11T15:23:33.000Z,98865
2018-02-11T15:25:33.000Z,98879
2018-02-11T15:27:18.000Z,98873
2018-02-11T15:28:33.000Z,98878
2018-02-11T15:29:33.000Z,98878
2018-02-11T15:31:33.000Z,98875
2018-02-11T15:33:33.000Z,98874
2018-02-11T15:35:33.000Z,98877
2018-02-11T15:37:33.000Z,98876
2018-02-11T15:39:33.000Z,98875
2018-02-11T15:40:33.000Z,98878
2018-02-11T15:42:33.000Z,98881
2018-02-11T15:44:33.000Z,98867
2018-02-11T15:45:33.000Z,98865
2018-02-11T15:46:33.000Z,98863
2018-02-11T15:48:18.000Z,98870
2018-02-11T15:49:33.000Z,98879
2018-02-11T15:50:33.000Z,98876
2018-02-11T15:52:18.000Z,98875
2018-02-11T15:53:33.000Z,98888
2018-02-11T15:55:33.000Z,98885
2018-02-11T15:57:18.000Z,98879
2018-02-11T15:58:33.000Z,98884
2018-02-11T16:00:33.000Z,98886
2018-02-11T16:01:33.000Z,98886
2018-02-11T16:03:33.000Z,98896
2018-02-11T16:04:33.000Z,98895
2018-02-11T16:06:33.000Z,98899
2018-02-11T16:08:33.000Z,98898
2018-02-11T16:10:33.000Z,98898
2018-02-11T16:12:33.000Z,98898
2018-02-11T16:14:03.000Z,98899
2018-02-11T16:15:33.000Z,98897
2018-02-11T16:17:18.000Z,98901
2018-02-11T16:18:33.000Z,98908
2018-02-11T16:19:33.000Z,98910
2018-02-11T16:21:33.000Z,98914
2018-02-11T16:23:33.000Z,98913
2018-02-11T16:24:33.000Z,98919
2018-02-11T16:26:18.000Z,98916
2018-02-11T16:27:33.000Z,98920
2018-02-11T16:28:33.000Z,98918
2018-02-11T16:30:33.000Z,98919
2018-02-11T16:31:33.000Z,98911
2018-02-11T16:33:18.000Z,98918
2018-02-11T16:34:33.000Z,98916
2018-02-11T16:36:33.000Z,98914
2018-02-11T16:38:34.000Z,98925
2018-02-11T16:40:34.000Z,98915
2018-02-11T16:42:33.000Z,98920
2018-02-11T16:44:33.000Z,98926
2018-02-11T16:46:33.000Z,98931
2018-02-11T16:48:33.000Z,98937
2018-02-11T16:49:33.000Z,98926
2018-02-11T16:51:18.000Z,98933
2018-02-11T16:52:33.000Z,98937
2018-02-11T16:53:33.000Z,98939
2018-02-11T16:55:33.000Z,98940
2018-02-11T16:56:33.000Z,98939
2018-02-11T16:57:33.000Z,98937
2018-02-11T16:58:33.000Z,98936
2018-02-11T17:00:33.000Z,98940
2018-02-11T17:02:33.000Z,98942
2018-02-11T17:04:33.000Z,98943
2018-02-11T17:06:33.000Z,98947
2018-02-11T17:07:33.000Z,98950
2018-02-11T17:09:33.000Z,98952
2018-02-11T17:11:18.000Z,98957
2018-02-11T17:12:33.000Z,98956
2018-02-11T17:14:33.000Z,98960
2018-02-11T17:15:33.000Z,98961
2018-02-11T17:17:33.000Z,98959
2018-02-11T17:19:33.000Z,98955
2018-02-11T17:21:33.000Z,98958
2018-02-11T17:23:18.000Z,98956
2018-02-11T17:25:33.000Z,98962
2018-02-11T17:26:33.000Z,98958
2018-02-11T17:28:33.000Z,98961
2018-02-11T17:30:33.000Z,98967
2018-02-11T17:31:33.000Z,98970
2018-02-11T17:33:33.000Z,98972
2018-02-11T17:35:33.000Z,98976
2018-02-11T17:36:33.000Z,98971
2018-02-11T17:38:33.000Z,98980
2018-02-11T17:39:33.000Z,98982
2018-02-11T17:41:33.000Z,98985
2018-02-11T17:42:33.000Z,98992
2018-02-11T17:44:33.000Z,98986
2018-02-11T17:46:33.000Z,98993
2018-02-11T17:48:34.000Z,98993
2018-02-11T17:50:18.000Z,98991
2018-02-11T17:51:34.000Z,98994
2018-02-11T17:53:34.000Z,98994
2018-02-11T17:54:34.000Z,98992
2018-02-11T17:55:34.000Z,98992
2018-02-11T17:57:34.000Z,98997
2018-02-11T17:58:34.000Z,98999
2018-02-11T17:59:34.000Z,98993
2018-02-11T18:01:34.000Z,98995
2018-02-11T18:03:34.000Z,98999
2018-02-11T18:05:34.000Z,98999
2018-02-11T18:07:34.000Z,99001
2018-02-11T18:09:34.000Z,99013
2018-02-11T18:11:18.000Z,99004
2018-02-11T18:12:34.000Z,99006
2018-02-11T18:14:34.000Z,99015
2018-02-11T18:16:34.000Z,99009
2018-02-11T18:18:34.000Z,99021
2018-02-11T18:19:34.000Z,99020
2018-02-11T18:21:34.000Z,99029
2018-02-11T18:22:34.000Z,99019
2018-02-11T18:24:34.000Z,99027
2018-02-11T18:25:34.000Z,99027
2018-02-11T18:27:34.000Z,99023
2018-02-11T18:29:34.000Z,99033
2018-02-11T18:31:34.000Z,99028
2018-02-11T18:33:18.000Z,99032
2018-02-11T18:34:34.000Z,99038
2018-02-11T18:36:34.000Z,99035
2018-02-11T18:38:34.000Z,99034
2018-02-11T18:40:34.000Z,99040
2018-02-11T18:42:34.000Z,99050
2018-02-11T18:44:34.000Z,99054
2018-02-11T18:46:34.000Z,99050
2018-02-11T18:48:34.000Z,99049
2018-02-11T18:49:34.000Z,99051
2018-02-11T18:51:19.000Z,99049
2018-02-11T18:52:33.000Z,99050
2018-02-11T18:54:33.000Z,99047
2018-02-11T18:55:33.000Z,99055
2018-02-11T18:57:33.000Z,99057
2018-02-11T18:58:33.000Z,99053
2018-02-11T19:00:33.000Z,99065
2018-02-11T19:02:33.000Z,99066
2018-02-11T19:04:18.000Z,99060
2018-02-11T19:05:33.000Z,99066
2018-02-11T19:07:18.000Z,99067
2018-02-11T19:08:33.000Z,99068
2018-02-11T19:10:33.000Z,99073
2018-02-11T19:12:18.000Z,99073
2018-02-11T19:13:33.000Z,99070
2018-02-11T19:15:33.000Z,99070
2018-02-11T19:17:33.000Z,99072
2018-02-11T19:19:33.000Z,99076
2018-02-11T19:20:33.000Z,99067
2018-02-11T19:22:33.000Z,99077
2018-02-11T19:24:33.000Z,99072
2018-02-11T19:26:18.000Z,99080
2018-02-11T19:27:33.000Z,99078
2018-02-11T19:28:33.000Z,99088
2018-02-11T19:30:33.000Z,99088
2018-02-11T19:32:33.000Z,99089
2018-02-11T19:34:33.000Z,99091
2018-02-11T19:36:33.000Z,99090
2018-02-11T19:38:33.000Z,99093
2018-02-11T19:40:33.000Z,99093
2018-02-11T19:42:33.000Z,99096
2018-02-11T19:44:33.000Z,99093
2018-02-11T19:45:33.000Z,99093
2018-02-11T19:47:33.000Z,99088
2018-02-11T19:48:33.000Z,99088
2018-02-11T19:49:33.000Z,99087
2018-02-11T19:51:33.000Z,99091
2018-02-11T19:53:33.000Z,99097
2018-02-11T19:55:33.000Z,99092
2018-02-11T19:56:34.000Z,99094
2018-02-11T19:58:34.000Z,99107
2018-02-11T19:59:34.000Z,99103
2018-02-11T20:01:34.000Z,99106
2018-02-11T20:02:34.000Z,99108
2018-02-11T20:04:34.000Z,99100
2018-02-11T20:06:18.000Z,99106
2018-02-11T20:07:34.000Z,99109
2018-02-11T20:09:34.000Z,99107
2018-02-11T20:11:34.000Z,99107
2018-02-11T20:13:34.000Z,99113
2018-02-11T20:14:34.000Z,99115
2018-02-11T20:16:34.000Z,99113
2018-02-11T20:17:34.000Z,99116
2018-02-11T20:19:34.000Z,99116
2018-02-11T20:21:34.000Z,99119
2018-02-11T20:23:34.000Z,99118
2018-02-11T20:25:34.000Z,99120
2018-02-11T20:27:34.000Z,99126
2018-02-11T20:29:34.000Z,99126
2018-02-11T20:30:34.000Z,99132
2018-02-11T20:32:34.000Z,99129
2018-02-11T20:33:34.000Z,99130
2018-02-11T20:35:18.000Z,99132
2018-02-11T20:36:34.000Z,99136
2018-02-11T20:38:18.000Z,99141
2018-02-11T20:39:34.000Z,99141
2018-02-11T20:40:34.000Z,99134